createdAt,value
2022-08-24T00:02:02.199Z,23.80
2022-08-24T00:04:32.147Z,23.80
2022-08-24T00:07:01.402Z,23.70
2022-08-24T00:09:30.630Z,23.60
2022-08-24T00:11:58.446Z,23.60
2022-08-24T00:14:26.275Z,23.70
2022-08-24T00:16:54.369Z,23.70
2022-08-24T00:19:22.132Z,23.70
2022-08-24T00:21:49.902Z,23.70
2022-08-24T00:24:17.714Z,23.70
2022-08-24T00:26:46.595Z,23.70
2022-08-24T00:29:15.782Z,23.70
2022-08-24T00:31:44.078Z,23.70
2022-08-24T00:34:13.542Z,23.70
2022-08-24T00:36:42.378Z,23.70
2022-08-24T00:39:11.316Z,23.70
2022-08-24T00:41:44.615Z,23.70
2022-08-24T00:44:14.196Z,23.50
2022-08-24T00:46:48.823Z,23.40
2022-08-24T00:49:24.951Z,23.40
2022-08-24T00:52:04.004Z,23.40
2022-08-24T00:54:46.034Z,23.40
2022-08-24T00:57:18.364Z,23.40
2022-08-24T00:59:52.434Z,23.40
2022-08-24T01:02:32.345Z,23.40
2022-08-24T01:05:04.476Z,23.40
2022-08-24T01:07:34.065Z,23.40
2022-08-24T01:10:06.627Z,23.30
2022-08-24T01:12:35.868Z,23.30
2022-08-24T01:15:06.848Z,23.20
2022-08-24T01:17:54.666Z,23.20
2022-08-24T01:20:26.330Z,23.20
2022-08-24T01:23:10.035Z,23.10
2022-08-24T01:25:39.274Z,23.10
2022-08-24T01:28:14.985Z,23.10
2022-08-24T01:30:44.997Z,23.10
2022-08-24T01:33:25.241Z,23.10
2022-08-24T01:35:59.898Z,23.20
2022-08-24T01:38:28.485Z,23.10
2022-08-24T01:41:01.158Z,23.10
2022-08-24T01:43:29.524Z,23.20
2022-08-24T01:45:58.401Z,23.10
2022-08-24T01:48:26.132Z,23.00
2022-08-24T01:50:55.064Z,23.00
2022-08-24T01:53:23.709Z,23.00
2022-08-24T01:55:51.644Z,22.90
2022-08-24T01:58:19.899Z,22.90
2022-08-24T02:00:48.080Z,22.90
2022-08-24T02:03:16.062Z,22.90
2022-08-24T02:05:49.310Z,22.90
2022-08-24T02:08:17.211Z,22.90
2022-08-24T02:10:48.767Z,22.80
2022-08-24T02:13:24.305Z,22.70
2022-08-24T02:15:52.286Z,22.80
2022-08-24T02:18:20.243Z,22.80
2022-08-24T02:20:48.088Z,22.80
2022-08-24T02:23:15.839Z,22.80
2022-08-24T02:25:43.702Z,22.70
2022-08-24T02:28:11.463Z,22.70
2022-08-24T02:30:40.496Z,22.60
2022-08-24T02:33:08.680Z,22.60
2022-08-24T02:35:37.055Z,22.60
2022-08-24T02:38:05.141Z,22.70
2022-08-24T02:40:33.702Z,22.70
2022-08-24T02:43:02.129Z,22.40
2022-08-24T02:45:29.879Z,22.30
2022-08-24T02:47:59.108Z,22.00
2022-08-24T02:50:27.841Z,22.20
2022-08-24T02:52:55.707Z,22.00
2022-08-24T02:55:24.810Z,22.20
2022-08-24T02:57:53.216Z,22.00
2022-08-24T03:00:22.295Z,22.00
2022-08-24T03:02:54.706Z,22.10
2022-08-24T03:05:23.779Z,22.00
2022-08-24T03:07:53.002Z,22.00
2022-08-24T03:10:21.565Z,22.00
2022-08-24T03:12:50.561Z,21.90
2022-08-24T03:15:24.571Z,21.80
2022-08-24T03:17:52.446Z,21.80
2022-08-24T03:20:22.785Z,21.80
2022-08-24T03:22:51.942Z,21.70
2022-08-24T03:25:21.703Z,21.70
2022-08-24T03:27:49.543Z,21.60
2022-08-24T03:30:19.034Z,21.70
2022-08-24T03:32:49.515Z,21.80
2022-08-24T03:35:18.516Z,21.80
2022-08-24T03:37:46.361Z,21.70
2022-08-24T03:40:22.283Z,21.60
2022-08-24T03:42:54.392Z,21.60
2022-08-24T03:45:23.057Z,21.60
2022-08-24T03:47:51.206Z,21.50
2022-08-24T03:50:20.485Z,21.50
2022-08-24T03:52:48.476Z,21.70
2022-08-24T03:55:16.354Z,21.60
2022-08-24T03:57:44.367Z,21.50
2022-08-24T04:00:13.631Z,21.60
2022-08-24T04:02:50.380Z,21.60
2022-08-24T04:05:21.471Z,21.50
2022-08-24T04:07:49.268Z,21.40
2022-08-24T04:10:17.035Z,21.40
2022-08-24T04:12:45.696Z,21.50
2022-08-24T04:15:15.185Z,21.50
2022-08-24T04:17:43.458Z,21.50
2022-08-24T04:20:11.924Z,21.60
2022-08-24T04:22:41.750Z,21.60
2022-08-24T04:25:10.682Z,21.40
2022-08-24T04:27:41.505Z,21.40
2022-08-24T04:30:14.210Z,21.50
2022-08-24T04:33:02.781Z,21.50
2022-08-24T04:35:30.682Z,21.50
2022-08-24T04:37:58.687Z,21.50
2022-08-24T04:40:26.469Z,21.50
2022-08-24T04:42:54.332Z,21.60
2022-08-24T04:45:22.659Z,21.70
2022-08-24T04:47:50.413Z,21.80
2022-08-24T04:50:18.690Z,21.70
2022-08-24T04:52:52.846Z,21.70
2022-08-24T04:55:20.872Z,21.70
2022-08-24T04:57:48.641Z,21.80
2022-08-24T05:00:16.664Z,21.80
2022-08-24T05:02:45.448Z,21.80
2022-08-24T05:05:14.768Z,21.80
2022-08-24T05:07:45.126Z,21.60
2022-08-24T05:10:14.405Z,21.60
2022-08-24T05:12:43.325Z,21.60
2022-08-24T05:15:13.180Z,21.60
2022-08-24T05:17:50.324Z,21.80
2022-08-24T05:20:19.491Z,21.70
2022-08-24T05:22:47.209Z,21.90
2022-08-24T05:25:15.338Z,21.90
2022-08-24T05:27:43.029Z,21.90
2022-08-24T05:30:11.408Z,22.00
2022-08-24T05:32:39.326Z,22.10
2022-08-24T05:35:08.043Z,21.90
2022-08-24T05:37:40.142Z,22.10
2022-08-24T05:40:19.705Z,22.20
2022-08-24T05:42:50.944Z,22.40
2022-08-24T05:45:18.855Z,22.50
2022-08-24T05:47:46.588Z,22.60
2022-08-24T05:50:32.676Z,22.60
2022-08-24T05:53:00.761Z,22.80
2022-08-24T05:55:28.838Z,22.80
2022-08-24T05:57:57.051Z,22.90
2022-08-24T06:00:27.206Z,23.10
2022-08-24T06:02:56.419Z,23.00
2022-08-24T06:05:24.297Z,23.20
2022-08-24T06:07:52.187Z,23.40
2022-08-24T06:10:36.315Z,23.60
2022-08-24T06:13:06.317Z,23.60
2022-08-24T06:15:35.252Z,23.80
2022-08-24T06:18:05.293Z,23.80
2022-08-24T06:20:37.633Z,24.00
2022-08-24T06:23:05.744Z,24.20
2022-08-24T06:26:00.267Z,24.30
2022-08-24T06:28:28.020Z,24.50
2022-08-24T06:31:10.033Z,24.60
2022-08-24T06:33:38.273Z,24.80
2022-08-24T06:36:06.472Z,24.90
2022-08-24T06:38:35.549Z,24.80
2022-08-24T06:41:05.902Z,25.00
2022-08-24T06:43:35.130Z,25.10
2022-08-24T06:46:10.814Z,25.00
2022-08-24T06:48:42.783Z,25.10
2022-08-24T06:51:14.106Z,25.10
2022-08-24T06:53:42.957Z,25.10
2022-08-24T06:56:12.657Z,25.30
2022-08-24T06:58:43.730Z,25.30
2022-08-24T07:01:20.777Z,25.50
2022-08-24T07:03:48.997Z,25.60
2022-08-24T07:06:27.854Z,25.60
2022-08-24T07:08:59.660Z,25.50
2022-08-24T07:11:28.238Z,25.70
2022-08-24T07:13:56.054Z,25.80
2022-08-24T07:16:24.955Z,25.90
2022-08-24T07:18:57.903Z,26.00
2022-08-24T07:21:28.421Z,26.10
2022-08-24T07:23:58.455Z,26.20
2022-08-24T07:26:29.185Z,26.30
2022-08-24T07:29:05.584Z,26.20
2022-08-24T07:31:43.344Z,26.40
2022-08-24T07:34:22.650Z,26.50
2022-08-24T07:36:52.453Z,26.60
2022-08-24T07:39:20.407Z,26.50
2022-08-24T07:42:11.673Z,26.70
2022-08-24T07:44:36.337Z,26.70
2022-08-24T07:47:21.089Z,26.80
2022-08-24T07:49:53.374Z,26.80
2022-08-24T07:52:21.184Z,26.80
2022-08-24T07:54:49.700Z,26.80
2022-08-24T07:57:17.619Z,26.90
2022-08-24T07:59:47.745Z,27.00
2022-08-24T08:02:15.752Z,26.90
2022-08-24T08:04:48.797Z,26.90
2022-08-24T08:07:17.633Z,26.90
2022-08-24T08:09:49.618Z,26.80
2022-08-24T08:12:18.693Z,26.90
2022-08-24T08:14:55.473Z,26.90
2022-08-24T08:17:23.420Z,26.80
2022-08-24T08:19:51.272Z,26.90
2022-08-24T08:22:37.847Z,27.10
2022-08-24T08:25:23.793Z,27.20
2022-08-24T08:27:51.987Z,27.30
2022-08-24T08:30:19.843Z,27.40
2022-08-24T08:32:47.743Z,27.40
2022-08-24T08:35:15.589Z,27.30
2022-08-24T08:37:44.117Z,27.30
2022-08-24T08:40:28.550Z,27.30
2022-08-24T08:43:10.703Z,27.40
2022-08-24T08:45:47.814Z,27.50
2022-08-24T08:49:02.766Z,27.50
2022-08-24T08:51:56.833Z,27.50
2022-08-24T08:54:50.578Z,27.40
2022-08-24T08:57:44.283Z,27.50
2022-08-24T09:00:22.653Z,27.60
2022-08-24T09:03:25.628Z,27.50
2022-08-24T09:06:34.398Z,27.60
2022-08-24T09:09:09.580Z,27.70
2022-08-24T09:11:57.862Z,27.70
2022-08-24T09:14:43.731Z,27.40
2022-08-24T09:17:32.356Z,27.50
2022-08-24T09:20:07.443Z,27.60
2022-08-24T09:22:43.684Z,27.70
2022-08-24T09:25:19.095Z,28.00
2022-08-24T09:28:19.954Z,27.90
2022-08-24T09:31:25.215Z,27.90
2022-08-24T09:34:32.839Z,27.60
2022-08-24T09:37:19.146Z,27.60
2022-08-24T09:40:09.710Z,27.70
2022-08-24T09:43:02.797Z,27.80
2022-08-24T09:46:06.053Z,27.80
2022-08-24T09:49:01.915Z,28.00
2022-08-24T09:51:49.143Z,28.10
2022-08-24T09:54:41.898Z,28.10
2022-08-24T09:58:00.065Z,28.20
2022-08-24T10:00:36.136Z,28.30
2022-08-24T10:03:35.006Z,28.40
2022-08-24T10:06:34.169Z,28.50
2022-08-24T10:09:08.149Z,28.30
2022-08-24T10:11:35.795Z,28.40
2022-08-24T10:14:09.501Z,28.40
2022-08-24T10:17:08.117Z,28.40
2022-08-24T10:20:14.135Z,28.50
2022-08-24T10:23:29.228Z,28.60
2022-08-24T10:26:09.869Z,28.60
2022-08-24T10:28:49.379Z,28.50
2022-08-24T10:31:31.471Z,28.50
2022-08-24T10:34:05.452Z,28.60
2022-08-24T10:36:39.173Z,28.70
2022-08-24T10:39:43.955Z,28.90
2022-08-24T10:42:59.084Z,29.00
2022-08-24T10:45:29.981Z,29.10
2022-08-24T10:48:33.391Z,29.20
2022-08-24T10:51:08.409Z,29.20
2022-08-24T10:53:36.470Z,29.30
2022-08-24T10:56:13.504Z,29.40
2022-08-24T10:58:44.193Z,29.10
2022-08-24T11:01:19.157Z,29.30
2022-08-24T11:03:59.801Z,29.30
2022-08-24T11:07:06.144Z,29.40
2022-08-24T11:09:52.074Z,29.70
2022-08-24T11:12:23.925Z,29.90
2022-08-24T11:14:52.478Z,29.70
2022-08-24T11:17:23.087Z,29.60
2022-08-24T11:19:51.999Z,29.50
2022-08-24T11:22:32.862Z,29.50
2022-08-24T11:25:15.769Z,29.80
2022-08-24T11:27:51.070Z,29.90
2022-08-24T11:30:18.787Z,30.00
2022-08-24T11:32:52.910Z,30.10
2022-08-24T11:35:20.584Z,29.90
2022-08-24T11:37:49.630Z,29.90
2022-08-24T11:40:19.884Z,30.10
2022-08-24T11:43:06.679Z,30.20
2022-08-24T11:46:11.623Z,30.40
2022-08-24T11:48:57.595Z,30.40
2022-08-24T11:51:28.352Z,30.20
2022-08-24T11:54:24.717Z,30.30
2022-08-24T11:57:04.570Z,30.30
2022-08-24T12:00:05.602Z,30.20
2022-08-24T12:02:49.670Z,30.30
2022-08-24T12:05:45.639Z,30.60
2022-08-24T12:08:13.615Z,30.80
2022-08-24T12:10:53.156Z,30.90
2022-08-24T12:13:36.370Z,31.00
2022-08-24T12:16:36.630Z,31.10
2022-08-24T12:19:19.680Z,31.30
2022-08-24T12:21:53.051Z,31.10
2022-08-24T12:24:26.697Z,31.00
2022-08-24T12:27:02.786Z,31.30
2022-08-24T12:29:40.885Z,31.40
2022-08-24T12:32:42.591Z,31.60
2022-08-24T12:35:32.287Z,31.80
2022-08-24T12:38:23.632Z,31.70
2022-08-24T12:40:58.848Z,31.20
2022-08-24T12:43:53.670Z,31.20
2022-08-24T12:46:24.462Z,30.80
2022-08-24T12:49:11.438Z,31.10
2022-08-24T12:52:04.642Z,31.50
2022-08-24T12:54:57.945Z,31.50
2022-08-24T12:57:59.245Z,31.40
2022-08-24T13:00:40.490Z,31.40
2022-08-24T13:03:24.122Z,31.60
2022-08-24T13:05:57.829Z,31.50
2022-08-24T13:08:40.491Z,31.20
2022-08-24T13:11:13.695Z,31.20
2022-08-24T13:13:43.885Z,31.40
2022-08-24T13:16:12.040Z,31.50
2022-08-24T13:18:51.682Z,31.70
2022-08-24T13:21:41.883Z,31.80
2022-08-24T13:24:41.775Z,31.70
2022-08-24T13:27:12.736Z,31.80
2022-08-24T13:29:46.257Z,31.60
2022-08-24T13:32:42.749Z,31.50
2022-08-24T13:35:39.947Z,31.50
2022-08-24T13:38:32.669Z,31.80
2022-08-24T13:41:06.618Z,31.90
2022-08-24T13:43:46.175Z,31.80
2022-08-24T13:46:30.102Z,31.70
2022-08-24T13:49:12.536Z,31.60
2022-08-24T13:51:49.974Z,31.40
2022-08-24T13:55:00.733Z,31.60
2022-08-24T13:57:44.373Z,31.70
2022-08-24T14:00:41.331Z,31.50
2022-08-24T14:03:23.893Z,31.90
2022-08-24T14:06:17.740Z,32.00
2022-08-24T14:09:27.096Z,32.00
2022-08-24T14:12:16.737Z,31.80
2022-08-24T14:15:21.414Z,31.50
2022-08-24T14:18:05.424Z,31.20
2022-08-24T14:20:55.062Z,31.20
2022-08-24T14:23:57.294Z,31.60
2022-08-24T14:26:43.507Z,31.70
2022-08-24T14:29:20.043Z,31.80
2022-08-24T14:31:58.529Z,32.00
2022-08-24T14:34:37.266Z,32.20
2022-08-24T14:37:14.101Z,32.30
2022-08-24T14:40:29.592Z,32.40
2022-08-24T14:43:11.713Z,32.40
2022-08-24T14:45:51.502Z,32.30
2022-08-24T14:48:43.038Z,32.20
2022-08-24T14:51:29.487Z,32.20
2022-08-24T14:54:12.232Z,31.90
2022-08-24T14:57:17.387Z,31.70
2022-08-24T15:00:16.678Z,32.10
2022-08-24T15:02:58.516Z,31.90
2022-08-24T15:05:29.614Z,32.00
2022-08-24T15:07:59.157Z,32.00
2022-08-24T15:10:46.346Z,32.00
2022-08-24T15:13:31.977Z,32.00
2022-08-24T15:16:17.013Z,31.90
2022-08-24T15:18:50.192Z,31.80
2022-08-24T15:21:20.962Z,31.80
2022-08-24T15:24:10.123Z,31.90
2022-08-24T15:27:01.034Z,32.10
2022-08-24T15:29:32.678Z,32.00
2022-08-24T15:32:08.722Z,31.80
2022-08-24T15:34:53.438Z,31.70
2022-08-24T15:37:40.567Z,31.60
2022-08-24T15:40:30.174Z,31.50
2022-08-24T15:43:03.413Z,31.20
2022-08-24T15:45:33.785Z,31.10
2022-08-24T15:48:03.402Z,31.00
2022-08-24T15:50:39.977Z,31.10
2022-08-24T15:53:27.076Z,31.00
2022-08-24T15:55:55.469Z,30.90
2022-08-24T15:58:36.575Z,30.90
2022-08-24T16:01:29.107Z,30.90
2022-08-24T16:04:00.992Z,30.90
2022-08-24T16:06:31.700Z,30.70
2022-08-24T16:09:35.092Z,30.80
2022-08-24T16:12:35.309Z,30.80
2022-08-24T16:15:14.720Z,30.90
2022-08-24T16:17:51.445Z,30.80
2022-08-24T16:20:25.376Z,30.70
2022-08-24T16:23:00.760Z,30.70
2022-08-24T16:25:34.856Z,30.70
2022-08-24T16:28:07.696Z,30.60
2022-08-24T16:30:55.877Z,30.50
2022-08-24T16:33:37.390Z,30.70
2022-08-24T16:36:15.627Z,30.70
2022-08-24T16:38:48.115Z,30.60
2022-08-24T16:41:19.436Z,30.50
2022-08-24T16:43:47.920Z,30.30
2022-08-24T16:46:22.578Z,30.30
2022-08-24T16:48:50.858Z,30.30
2022-08-24T16:51:18.501Z,30.20
2022-08-24T16:53:46.218Z,30.20
2022-08-24T16:56:16.685Z,30.10
2022-08-24T16:58:47.552Z,30.10
2022-08-24T17:01:16.071Z,30.10
2022-08-24T17:03:44.041Z,30.10
2022-08-24T17:06:15.844Z,30.10
2022-08-24T17:08:43.548Z,30.00
2022-08-24T17:11:15.019Z,29.90
2022-08-24T17:13:50.707Z,29.80
2022-08-24T17:16:20.857Z,29.80
2022-08-24T17:18:48.924Z,29.80
2022-08-24T17:21:16.873Z,29.80
2022-08-24T17:23:45.292Z,29.60
2022-08-24T17:26:20.553Z,29.50
2022-08-24T17:28:52.074Z,29.60
2022-08-24T17:31:20.052Z,29.50
2022-08-24T17:33:47.792Z,29.40
2022-08-24T17:36:18.669Z,29.40
2022-08-24T17:38:54.459Z,29.30
2022-08-24T17:41:25.492Z,29.20
2022-08-24T17:43:54.368Z,29.20
2022-08-24T17:46:22.609Z,29.10
2022-08-24T17:48:50.786Z,29.10
2022-08-24T17:51:19.531Z,29.10
2022-08-24T17:53:47.234Z,29.00
2022-08-24T17:56:16.067Z,28.90
2022-08-24T17:59:02.840Z,28.80
2022-08-24T18:01:31.057Z,28.60
2022-08-24T18:03:58.967Z,28.50
2022-08-24T18:06:28.024Z,28.40
2022-08-24T18:08:59.383Z,28.20
2022-08-24T18:11:27.164Z,28.10
2022-08-24T18:13:54.933Z,28.20
2022-08-24T18:16:25.112Z,28.00
2022-08-24T18:18:54.134Z,28.00
2022-08-24T18:21:22.628Z,27.90
2022-08-24T18:23:51.093Z,27.80
2022-08-24T18:26:27.581Z,27.80
2022-08-24T18:29:00.114Z,27.70
2022-08-24T18:31:28.432Z,27.80
2022-08-24T18:33:56.115Z,27.80
2022-08-24T18:36:23.964Z,27.80
2022-08-24T18:38:51.804Z,27.70
2022-08-24T18:41:20.065Z,27.70
2022-08-24T18:43:48.951Z,27.60
2022-08-24T18:46:16.712Z,27.70
2022-08-24T18:48:44.486Z,27.60
2022-08-24T18:51:18.969Z,27.60
2022-08-24T18:53:47.662Z,27.50
2022-08-24T18:56:16.279Z,27.40
2022-08-24T18:58:44.140Z,27.40
2022-08-24T19:01:12.651Z,27.30
2022-08-24T19:03:40.485Z,27.30
2022-08-24T19:06:08.233Z,27.30
2022-08-24T19:08:36.972Z,27.30
2022-08-24T19:11:06.596Z,27.30
2022-08-24T19:13:35.058Z,27.30
2022-08-24T19:16:03.102Z,27.10
2022-08-24T19:18:31.137Z,27.10
2022-08-24T19:20:59.997Z,27.20
2022-08-24T19:23:35.308Z,27.20
2022-08-24T19:26:04.059Z,27.20
2022-08-24T19:28:32.070Z,27.10
2022-08-24T19:31:02.951Z,27.30
2022-08-24T19:33:39.577Z,27.30
2022-08-24T19:36:09.458Z,27.10
2022-08-24T19:38:37.281Z,26.90
2022-08-24T19:41:11.671Z,27.00
2022-08-24T19:44:02.105Z,26.90
2022-08-24T19:46:30.241Z,26.80
2022-08-24T19:48:58.344Z,26.70
2022-08-24T19:51:27.083Z,26.60
2022-08-24T19:53:54.811Z,26.70
2022-08-24T19:56:23.800Z,26.70
2022-08-24T19:58:58.791Z,26.70
2022-08-24T20:01:34.858Z,26.80
2022-08-24T20:04:06.325Z,26.80
2022-08-24T20:06:36.331Z,26.70
2022-08-24T20:09:05.040Z,26.70
2022-08-24T20:11:33.327Z,26.50
2022-08-24T20:14:02.832Z,26.40
2022-08-24T20:16:42.316Z,26.60
2022-08-24T20:19:11.510Z,26.60
2022-08-24T20:21:39.767Z,26.60
2022-08-24T20:24:07.568Z,26.50
2022-08-24T20:26:43.321Z,26.60
2022-08-24T20:29:12.489Z,26.60
2022-08-24T20:31:41.426Z,26.50
2022-08-24T20:34:09.321Z,26.50
2022-08-24T20:36:41.043Z,26.40
2022-08-24T20:39:11.603Z,26.40
2022-08-24T20:41:40.406Z,26.40
2022-08-24T20:44:09.425Z,26.40
2022-08-24T20:46:40.041Z,26.40
2022-08-24T20:49:10.591Z,26.40
2022-08-24T20:51:43.378Z,26.40
2022-08-24T20:54:11.926Z,26.40
2022-08-24T20:56:39.814Z,26.40
2022-08-24T20:59:10.321Z,26.40
2022-08-24T21:01:39.941Z,26.40
2022-08-24T21:04:07.751Z,26.40
2022-08-24T21:06:36.810Z,26.40
2022-08-24T21:09:05.914Z,26.40
2022-08-24T21:11:33.854Z,26.30
2022-08-24T21:14:05.679Z,26.20
2022-08-24T21:16:36.166Z,26.10
2022-08-24T21:19:03.971Z,26.00
2022-08-24T21:21:33.766Z,26.10
2022-08-24T21:24:03.680Z,26.10
2022-08-24T21:26:33.374Z,26.10
2022-08-24T21:29:03.042Z,26.00
2022-08-24T21:31:30.744Z,26.00
2022-08-24T21:34:17.115Z,25.90
2022-08-24T21:36:47.213Z,25.80
2022-08-24T21:39:15.272Z,25.60
2022-08-24T21:41:43.265Z,25.40
2022-08-24T21:44:11.191Z,25.40
2022-08-24T21:46:40.630Z,25.40
2022-08-24T21:49:12.086Z,25.50
2022-08-24T21:51:40.668Z,25.50
2022-08-24T21:54:08.677Z,25.50
2022-08-24T21:56:36.451Z,25.60
2022-08-24T21:59:04.302Z,25.50
2022-08-24T22:01:32.698Z,25.50
2022-08-24T22:04:01.815Z,25.40
2022-08-24T22:06:31.994Z,25.50
2022-08-24T22:09:01.239Z,25.40
2022-08-24T22:11:29.684Z,25.50
2022-08-24T22:13:57.602Z,25.40
2022-08-24T22:16:26.032Z,25.40
2022-08-24T22:18:54.253Z,25.30
2022-08-24T22:21:25.556Z,25.40
2022-08-24T22:23:53.220Z,25.40
2022-08-24T22:26:26.560Z,25.50
2022-08-24T22:28:56.829Z,25.30
2022-08-24T22:31:28.419Z,25.20
2022-08-24T22:33:59.718Z,25.20
2022-08-24T22:36:29.138Z,25.10
2022-08-24T22:38:58.294Z,25.10
2022-08-24T22:41:27.929Z,25.00
2022-08-24T22:44:14.950Z,25.00
2022-08-24T22:46:43.278Z,25.00
2022-08-24T22:49:11.979Z,25.00
2022-08-24T22:51:40.771Z,24.90
2022-08-24T22:54:09.582Z,24.90
2022-08-24T22:56:44.800Z,24.90
2022-08-24T22:59:19.079Z,24.80
2022-08-24T23:01:49.968Z,24.80
2022-08-24T23:04:25.736Z,24.70
2022-08-24T23:06:55.053Z,24.60
2022-08-24T23:09:23.566Z,24.60
2022-08-24T23:11:54.823Z,24.60
2022-08-24T23:14:23.713Z,24.60
2022-08-24T23:16:51.963Z,24.60
2022-08-24T23:19:43.661Z,24.60
2022-08-24T23:22:13.617Z,24.60
2022-08-24T23:24:43.058Z,24.60
2022-08-24T23:27:12.643Z,24.50
2022-08-24T23:29:40.398Z,24.60
2022-08-24T23:32:08.391Z,24.60
2022-08-24T23:34:36.922Z,24.60
2022-08-24T23:37:05.275Z,24.60
2022-08-24T23:39:33.337Z,24.60
2022-08-24T23:42:01.664Z,24.50
2022-08-24T23:44:30.050Z,24.50
2022-08-24T23:46:58.726Z,24.50
2022-08-24T23:49:28.313Z,24.50
2022-08-24T23:51:56.277Z,24.50
2022-08-24T23:54:25.046Z,24.30
2022-08-24T23:56:54.069Z,24.50
2022-08-24T23:59:32.170Z,24.40
